Aviation Digital Data Service (ADDS)

Output produced by METARs form (2019 UTC 22 November 2017)
found at http://aviationweather.gov/adds/metars/
 
KINT 221720Z 2218/2318 32009G18KT P6SM SKC 
     FM230000 01007KT P6SM BKN250